Terminal Aerodrome Forecast
Issued by NWS

Home | Current Version | Previous Version | Text Only | Print | Product List | Glossary On
Versions: 1 2 3 4 5 6 7 8 9 10 11 12 13 14 15 16 17 18 19 20 21 22 23 24 25 26 27 28 29 30
000
FTUS41 KALY 010520
TAFPSF
TAF
KPSF 010520Z 0106/0206 14008KT 6SM -SHRA BR VCTS BKN025 BKN050CB
      TEMPO 0106/0108 VRB10G20KT 3SM -SHRA BR SCT008 OVC015
     FM010800 16004KT 4SM BR VCSH SCT008 OVC015
      TEMPO 0108/0111 2SM BR BKN008 OVC015
     FM011500 19010KT P6SM VCSH BKN040
     FM012200 26009KT P6SM BKN045=

USA.gov is the U.S. government's official web portal to all federal, state and local government web resources and services.